Time;durP1;ratioP1;P1;durP2;ratioP2;P2;SDS_P1;SDS_P2;PMS_P1;PMS_P2;Temp;Humidity;BMP_temperature;BMP_pressure;BME280_temperature;BME280_humidity;BME280_pressure;Samples;Min_cycle;Max_cycle;Signal;HPM_P1;HPM_P2
2022/05/11 00:00:52;;;;;;;9.53;6.20;;;;;;;15.79;56.95;100481.77;1741533;82;21041;-76
2022/05/11 00:03:20;;;;;;;11.33;6.40;;;;;;;15.77;57.03;100477.55;1820645;77;21013;-75
2022/05/11 00:05:47;;;;;;;13.10;6.65;;;;;;;15.77;57.10;100473.58;1847398;77;21068;-75
2022/05/11 00:08:14;;;;;;;10.68;6.80;;;;;;;15.76;57.25;100471.38;1847858;77;21091;-75
2022/05/11 00:10:42;;;;;;;13.98;6.55;;;;;;;15.75;57.31;100472.34;1847322;77;21611;-75
2022/05/11 00:13:10;;;;;;;12.43;6.83;;;;;;;15.75;57.39;100467.05;1847783;77;20885;-75
2022/05/11 00:15:37;;;;;;;9.20;6.20;;;;;;;15.75;57.46;100468.38;1847529;77;20976;-75
2022/05/11 00:18:05;;;;;;;10.28;6.72;;;;;;;15.76;57.58;100459.49;1847443;77;20969;-75
2022/05/11 00:20:32;;;;;;;10.55;6.40;;;;;;;15.75;57.60;100460.92;1847539;77;21053;-75
2022/05/11 00:22:59;;;;;;;9.20;6.10;;;;;;;15.75;57.72;100456.95;1847370;77;21016;-76
2022/05/11 00:25:28;;;;;;;12.45;6.78;;;;;;;15.74;57.75;100461.84;1847432;77;21019;-75
2022/05/11 00:27:57;;;;;;;11.12;6.47;;;;;;;15.72;57.83;100459.30;1847424;77;20992;-75
2022/05/11 00:30:26;;;;;;;11.43;6.57;;;;;;;15.71;57.95;100459.38;1847720;77;20977;-75
2022/05/11 00:32:56;;;;;;;10.10;5.80;;;;;;;15.70;57.97;100455.04;1847680;77;21223;-75
2022/05/11 00:35:24;;;;;;;;;;;;;;;15.69;58.09;100458.16;1850241;77;21004;-75
2022/05/11 00:37:51;;;;;;;10.28;6.80;;;;;;;15.66;58.33;100450.37;1845774;77;20404;-75
2022/05/11 00:40:22;;;;;;;10.63;7.15;;;;;;;15.64;58.23;100446.97;1825395;78;21600;-75
2022/05/11 00:42:49;;;;;;;;;;;;;;;15.64;58.30;100446.12;1828128;78;21540;-75
2022/05/11 00:45:17;;;;;;;10.38;6.17;;;;;;;15.62;58.55;100444.39;1825744;78;21205;-76
2022/05/11 00:48:00;;;;;;;15.05;7.00;;;;;;;15.60;58.42;100443.66;1825218;78;21033;-75
2022/05/11 00:50:31;;;;;;;10.78;6.65;;;;;;;15.59;58.49;100448.53;1825685;78;21000;-75
2022/05/11 00:53:10;;;;;;;12.58;6.90;;;;;;;15.58;58.58;100453.45;1825576;78;20981;-76
2022/05/11 00:55:40;;;;;;;9.48;6.72;;;;;;;15.58;58.66;100447.33;1825016;78;21256;-76
2022/05/11 00:58:15;;;;;;;9.03;6.62;;;;;;;15.58;58.76;100446.00;1825383;78;21459;-75
2022/05/11 01:00:45;;;;;;;12.15;7.05;;;;;;;15.57;58.84;100444.28;1825368;78;21008;-75
2022/05/11 01:03:36;;;;;;;13.60;7.22;;;;;;;15.57;58.95;100439.00;1825303;78;21001;-76
2022/05/11 01:06:05;;;;;;;9.78;6.20;;;;;;;15.56;59.10;100440.80;1825371;78;20982;-76
2022/05/11 01:08:32;;;;;;;11.70;7.15;;;;;;;15.57;59.27;100437.67;1825597;78;21021;-75
2022/05/11 01:11:04;;;;;;;11.03;6.72;;;;;;;15.56;59.36;100434.66;1825139;78;21160;-76
2022/05/11 01:13:32;;;;;;;11.35;6.87;;;;;;;15.56;59.43;100438.62;1825489;78;21049;-77
2022/05/11 01:16:01;;;;;;;11.10;6.53;;;;;;;15.54;59.48;100435.20;1825622;78;21037;-76
2022/05/11 01:18:30;;;;;;;11.80;7.00;;;;;;;15.52;59.71;100430.48;1825302;78;21017;-76
2022/05/11 01:20:58;;;;;;;11.80;6.87;;;;;;;15.51;59.84;100429.63;1825694;78;21348;-76
2022/05/11 01:23:55;;;;;;;10.13;6.47;;;;;;;15.48;60.03;100428.97;1825364;78;21111;-76
2022/05/11 01:26:22;;;;;;;10.55;7.25;;;;;;;15.45;60.09;100429.14;1824829;78;21037;-76
2022/05/11 01:28:55;;;;;;;13.95;7.47;;;;;;;15.42;60.41;100426.68;1825256;78;21001;-76
2022/05/11 01:31:20;;;;;;;10.50;7.17;;;;;;;15.39;60.64;100425.91;1824992;78;21311;-76
2022/05/11 01:33:49;;;;;;;11.08;7.30;;;;;;;15.36;60.72;100422.59;1825238;78;20977;-76
2022/05/11 01:36:34;;;;;;;11.78;6.55;;;;;;;15.31;60.91;100417.56;1825071;78;21179;-76
2022/05/11 01:39:05;;;;;;;9.25;6.60;;;;;;;15.30;61.12;100418.98;1832053;77;21023;-76
2022/05/11 01:41:38;;;;;;;10.28;7.08;;;;;;;15.27;61.29;100413.41;1840998;77;21278;-76
2022/05/11 01:44:13;;;;;;;10.88;6.95;;;;;;;15.27;61.30;100414.73;1841792;77;38648;-76
2022/05/11 01:46:48;;;;;;;9.95;6.45;;;;;;;15.28;61.40;100415.57;1841572;77;21011;-76
2022/05/11 01:49:15;;;;;;;11.60;7.00;;;;;;;15.27;61.57;100408.56;1841592;77;22017;-76
2022/05/11 01:51:42;;;;;;;11.00;7.10;;;;;;;15.26;61.69;100408.20;1841464;77;21036;-76
2022/05/11 01:54:10;;;;;;;8.18;6.72;;;;;;;15.25;61.74;100413.11;1841839;77;21032;-76
2022/05/11 01:56:37;;;;;;;9.48;6.62;;;;;;;15.22;61.88;100410.17;1841551;77;20981;-76
2022/05/11 01:59:04;;;;;;;8.05;6.95;;;;;;;15.21;62.01;100410.23;1841997;77;21040;-76
2022/05/11 02:01:34;;;;;;;11.93;6.83;;;;;;;15.18;62.18;100411.27;1841544;77;21106;-76
2022/05/11 02:04:01;;;;;;;11.78;7.17;;;;;;;15.17;62.34;100410.41;1818973;77;21059;-76
2022/05/11 02:09:14;;;;;;;8.15;6.35;;;;;;;15.09;62.62;100406.50;1842023;77;21086;-76
2022/05/11 02:11:41;;;;;;;10.32;6.47;;;;;;;15.06;62.83;100402.72;1841678;77;20996;-77
2022/05/11 02:14:09;;;;;;;10.20;7.22;;;;;;;15.02;62.95;100403.81;1841857;77;21127;-77
2022/05/11 02:16:36;;;;;;;8.95;6.75;;;;;;;14.97;63.15;100399.28;1841510;77;21063;-77
2022/05/11 02:19:03;;;;;;;10.13;7.15;;;;;;;14.91;63.33;100399.16;1841621;77;20929;-77
2022/05/11 02:21:30;;;;;;;10.15;7.58;;;;;;;14.85;63.50;100400.78;1841497;77;21008;-77
2022/05/11 02:23:57;;;;;;;9.08;6.33;;;;;;;14.82;63.64;100401.80;1841698;77;21059;-77
2022/05/11 02:26:25;;;;;;;7.47;6.65;;;;;;;14.77;63.71;100396.39;1841693;77;21102;-77
2022/05/11 02:28:55;;;;;;;8.73;6.47;;;;;;;14.71;63.92;100391.86;1841463;77;21036;-77
2022/05/11 02:31:22;;;;;;;9.53;7.72;;;;;;;14.67;64.07;100394.27;1841977;77;21071;-77
2022/05/11 02:33:50;;;;;;;11.75;7.30;;;;;;;14.64;64.24;100390.47;1841566;77;21008;-76
2022/05/11 02:36:16;;;;;;;9.88;7.08;;;;;;;14.58;64.29;100388.64;1841797;77;21312;-77
2022/05/11 02:38:43;;;;;;;9.43;6.92;;;;;;;14.54;64.50;100398.48;1842202;77;21929;-78
2022/05/11 02:41:10;;;;;;;9.65;7.65;;;;;;;14.50;64.71;100385.91;1847213;77;21640;-76
2022/05/11 02:43:38;;;;;;;10.25;7.37;;;;;;;14.45;64.78;100388.41;1847173;77;21016;-77
2022/05/11 02:46:05;;;;;;;9.60;7.05;;;;;;;14.40;64.89;100383.84;1847401;77;21044;-76
2022/05/11 02:48:33;;;;;;;8.93;7.17;;;;;;;14.33;65.03;100382.00;1847395;77;21244;-77
2022/05/11 02:51:03;;;;;;;10.10;7.47;;;;;;;14.28;65.13;100382.71;1847137;77;21093;-76
2022/05/11 02:53:32;;;;;;;11.38;7.42;;;;;;;14.21;65.24;100374.25;1847580;77;21059;-77
2022/05/11 02:56:00;;;;;;;8.70;7.22;;;;;;;14.18;65.35;100380.16;1847571;77;21032;-77
2022/05/11 02:58:34;;;;;;;12.60;7.12;;;;;;;14.13;65.50;100376.91;1847464;77;21021;-77
2022/05/11 03:01:04;;;;;;;10.23;8.03;;;;;;;14.12;65.57;100380.48;1847243;77;20981;-76
2022/05/11 03:03:34;;;;;;;10.38;7.00;;;;;;;14.02;65.62;100377.02;1847761;77;21087;-77
2022/05/11 03:06:03;;;;;;;10.10;7.60;;;;;;;13.96;65.69;100378.63;1847079;77;21501;-77
2022/05/11 03:08:30;;;;;;;12.88;7.60;;;;;;;13.91;65.79;100389.02;1847467;77;21490;-77
2022/05/11 03:10:57;;;;;;;10.70;7.72;;;;;;;13.80;65.82;100387.80;1847254;77;20980;-77
2022/05/11 03:13:24;;;;;;;9.65;7.35;;;;;;;13.74;66.11;100381.97;1847478;77;20996;-77
2022/05/11 03:15:53;;;;;;;9.40;7.60;;;;;;;13.68;66.18;100389.72;1847245;77;21264;-76
2022/05/11 03:18:20;;;;;;;11.43;7.42;;;;;;;13.59;66.27;100391.50;1847375;77;21015;-76
2022/05/11 03:20:47;;;;;;;11.22;8.45;;;;;;;13.51;66.40;100385.77;1847262;77;21039;-77
2022/05/11 03:23:15;;;;;;;12.20;8.25;;;;;;;13.47;66.59;100391.66;1847129;77;21478;-76
2022/05/11 03:25:42;;;;;;;9.90;7.87;;;;;;;13.41;66.69;100385.34;1847376;77;21032;-77
2022/05/11 03:28:09;;;;;;;9.13;7.05;;;;;;;13.35;66.91;100387.81;1847323;77;21768;-77
2022/05/11 03:30:36;;;;;;;9.60;7.78;;;;;;;13.31;67.08;100383.64;1847451;77;21071;-76
2022/05/11 03:35:48;;;;;;;10.72;7.65;;;;;;;13.26;67.31;100380.38;1847227;77;21011;-77
2022/05/11 03:38:15;;;;;;;11.20;7.30;;;;;;;13.25;67.68;100381.28;1847485;77;21095;-77
2022/05/11 03:40:43;;;;;;;11.48;8.18;;;;;;;13.26;67.73;100376.43;1842459;76;21761;-77
2022/05/11 03:43:09;;;;;;;11.45;8.05;;;;;;;13.27;67.98;100368.91;1841799;77;20992;-77
2022/05/11 03:45:36;;;;;;;12.37;8.13;;;;;;;13.32;68.25;100373.48;1833622;77;21463;-77
2022/05/11 03:48:04;;;;;;;9.85;7.72;;;;;;;13.38;68.34;100371.90;1836103;77;21506;-77
2022/05/11 03:50:31;;;;;;;10.98;7.90;;;;;;;13.43;68.55;100372.97;1835642;78;20985;-77
2022/05/11 03:52:59;;;;;;;11.15;8.13;;;;;;;13.49;68.64;100376.61;1837530;77;22006;-77
2022/05/11 03:55:27;;;;;;;12.53;8.40;;;;;;;13.55;68.73;100382.91;1839283;77;21068;-77
2022/05/11 03:57:54;;;;;;;9.68;8.08;;;;;;;13.62;68.94;100378.18;1838874;77;21028;-77
2022/05/11 04:00:24;;;;;;;8.70;7.65;;;;;;;13.65;68.95;100375.39;1824055;77;20977;-77
2022/05/11 04:02:54;;;;;;;11.43;8.25;;;;;;;13.70;69.05;100387.02;1834243;77;21001;-77
2022/05/11 04:05:22;;;;;;;10.05;7.55;;;;;;;13.73;69.16;100376.33;1837849;77;21102;-77
2022/05/11 04:07:49;;;;;;;11.60;8.05;;;;;;;13.76;69.28;100377.02;1833758;77;20973;-77
2022/05/11 04:10:18;;;;;;;9.53;7.70;;;;;;;13.81;69.39;100382.06;1832603;77;21060;-77
2022/05/11 04:12:46;;;;;;;8.83;7.70;;;;;;;13.87;69.28;100384.38;1836260;77;21075;-77
2022/05/11 04:15:14;;;;;;;9.90;7.58;;;;;;;13.94;69.37;100384.91;1832047;77;21211;-77
2022/05/11 04:17:42;;;;;;;10.95;8.00;;;;;;;14.00;69.45;100383.30;1831450;78;21159;-77
2022/05/11 04:20:14;;;;;;;12.40;8.23;;;;;;;14.06;69.38;100383.82;1835784;78;21008;-77
2022/05/11 04:22:41;;;;;;;12.40;7.75;;;;;;;14.15;69.22;100384.28;1835563;77;21012;-77
2022/05/11 04:25:10;;;;;;;14.65;7.55;;;;;;;14.22;69.19;100383.03;1836051;77;21024;-77
2022/05/11 04:27:37;;;;;;;9.37;7.20;;;;;;;14.28;69.25;100386.19;1835901;78;21031;-77
2022/05/11 04:30:06;;;;;;;10.45;8.18;;;;;;;14.33;69.16;100382.00;1833539;77;21134;-77
2022/05/11 04:32:34;;;;;;;8.93;7.37;;;;;;;14.39;68.99;100376.88;1835471;77;21004;-76
2022/05/11 04:35:01;;;;;;;10.45;7.35;;;;;;;14.45;68.77;100377.38;1835925;78;20987;-77
2022/05/11 04:37:29;;;;;;;12.18;7.50;;;;;;;14.52;68.70;100380.56;1836198;78;21457;-76
2022/05/11 04:39:56;;;;;;;10.15;7.22;;;;;;;14.57;68.65;100376.37;1832299;77;21017;-77
2022/05/11 04:42:23;;;;;;;8.25;7.22;;;;;;;14.63;68.59;100384.83;1745510;81;21689;-77
2022/05/11 04:44:55;;;;;;;11.45;7.33;;;;;;;14.71;68.55;100381.74;1760923;81;21053;-77
2022/05/11 04:47:22;;;;;;;11.38;7.85;;;;;;;14.75;68.56;100379.34;1749330;81;21458;-77
2022/05/11 04:49:53;;;;;;;7.30;6.55;;;;;;;14.82;68.53;100386.44;1762929;80;21048;-76
2022/05/11 04:52:21;;;;;;;9.83;7.15;;;;;;;14.88;68.48;100392.69;1750244;81;21148;-77
2022/05/11 04:54:49;;;;;;;9.68;7.62;;;;;;;14.95;68.46;100391.43;1756262;81;21116;-77
2022/05/11 04:57:20;;;;;;;8.55;7.25;;;;;;;15.01;68.53;100392.87;1763303;81;21030;-77
2022/05/11 04:59:49;;;;;;;7.72;6.85;;;;;;;15.06;68.39;100392.16;1753546;80;21032;-77
2022/05/11 05:02:23;;;;;;;11.33;7.03;;;;;;;15.11;68.21;100397.56;1760790;81;21106;-76
2022/05/11 05:04:51;;;;;;;9.90;7.45;;;;;;;15.17;68.11;100394.58;1762643;81;21030;-77
2022/05/11 05:07:19;;;;;;;10.10;7.33;;;;;;;15.26;68.28;100394.99;1765987;81;21059;-76
2022/05/11 05:09:46;;;;;;;9.30;7.33;;;;;;;15.32;68.08;100398.60;1756727;81;21029;-76
2022/05/11 05:12:14;;;;;;;11.90;7.47;;;;;;;15.41;68.03;100395.45;1763430;81;21059;-75
2022/05/11 05:14:42;;;;;;;8.90;6.78;;;;;;;15.53;68.11;100399.18;1756700;81;21013;-76
2022/05/11 05:17:12;;;;;;;8.98;7.28;;;;;;;15.60;68.06;100398.74;1742582;81;21016;-77
2022/05/11 05:19:42;;;;;;;8.00;6.75;;;;;;;15.69;68.20;100390.78;1765875;80;21232;-76
2022/05/11 05:22:10;;;;;;;10.82;7.58;;;;;;;15.79;68.13;100393.72;1796052;79;25155;-78
2022/05/11 05:24:37;;;;;;;12.40;6.83;;;;;;;15.87;67.56;100406.48;1774198;79;20989;-79
2022/05/11 05:27:05;;;;;;;9.38;7.55;;;;;;;15.94;67.70;100426.34;1775716;79;20961;-77
2022/05/11 05:32:17;;;;;;;8.75;7.33;;;;;;;16.08;67.17;100417.59;1773801;80;21123;-76
2022/05/11 05:34:44;;;;;;;11.38;7.12;;;;;;;16.13;66.68;100399.63;1804623;79;21615;-79
2022/05/11 05:37:13;;;;;;;9.28;6.60;;;;;;;16.19;66.52;100405.91;1795770;79;21344;-75
2022/05/11 05:39:40;;;;;;;8.23;6.58;;;;;;;16.24;66.29;100413.09;1774738;80;21743;-76
2022/05/11 05:42:09;;;;;;;9.58;6.47;;;;;;;16.28;66.18;100415.91;1807794;78;22038;-75
2022/05/11 05:44:37;;;;;;;8.35;6.03;;;;;;;16.34;65.99;100414.22;1795932;79;21133;-75
2022/05/11 05:47:07;;;;;;;12.65;6.58;;;;;;;16.43;65.86;100420.73;1804475;79;20986;-75
2022/05/11 05:49:35;;;;;;;11.85;6.62;;;;;;;16.51;65.76;100422.44;1796269;79;21033;-75
2022/05/11 05:52:04;;;;;;;9.30;6.08;;;;;;;16.61;65.73;100426.23;1804421;78;21001;-75
2022/05/11 05:54:33;;;;;;;6.78;5.60;;;;;;;16.71;65.69;100430.47;1796210;79;20969;-78
2022/05/11 05:57:00;;;;;;;8.45;6.62;;;;;;;16.81;65.46;100427.66;1795752;79;22115;-77
2022/05/11 05:59:28;;;;;;;7.70;6.25;;;;;;;16.92;65.49;100432.29;1772845;81;21024;-78
2022/05/11 06:01:55;;;;;;;7.42;6.15;;;;;;;17.20;65.76;100434.03;1804256;79;20996;-79
2022/05/11 06:04:22;;;;;;;9.98;6.47;;;;;;;17.31;65.72;100425.40;1795722;79;21045;-79
2022/05/11 06:06:48;;;;;;;9.18;6.58;;;;;;;17.31;65.72;100425.40;1804237;78;20966;-79
2022/05/11 06:09:16;;;;;;;8.50;7.00;;;;;;;17.48;65.72;100430.92;1795692;79;21185;-78
2022/05/11 06:11:43;;;;;;;9.28;7.22;;;;;;;17.58;65.55;100434.20;1773003;80;21039;-79
2022/05/11 06:14:11;;;;;;;7.65;6.85;;;;;;;17.69;65.56;100435.30;1822375;76;21715;-81
2022/05/11 06:16:38;;;;;;;7.90;7.05;;;;;;;17.71;65.43;100420.13;1831963;77;21020;-79
2022/05/11 06:19:05;;;;;;;8.83;7.08;;;;;;;17.78;65.29;100430.70;1765433;80;20985;-79
2022/05/11 06:21:34;;;;;;;8.05;6.53;;;;;;;17.91;65.14;100442.71;1826471;77;21885;-79
2022/05/11 06:24:01;;;;;;;8.88;6.50;;;;;;;17.97;65.17;100440.97;1823390;77;20977;-80
2022/05/11 06:26:28;;;;;;;10.08;5.90;;;;;;;18.04;65.14;100439.58;1847662;77;21004;-79
2022/05/11 06:28:56;;;;;;;8.63;6.15;;;;;;;18.13;65.18;100444.77;1825736;77;21446;-79
2022/05/11 06:31:23;;;;;;;7.85;5.80;;;;;;;18.22;65.12;100441.00;1814384;79;20987;-76
2022/05/11 06:33:53;;;;;;;9.95;6.70;;;;;;;18.33;65.18;100430.98;1839983;77;21221;-77
2022/05/11 06:36:23;;;;;;;8.70;6.20;;;;;;;18.45;65.07;100434.58;1841606;77;20965;-77
2022/05/11 06:38:52;;;;;;;6.60;5.90;;;;;;;18.55;65.00;100433.00;1840492;77;21035;-77
2022/05/11 06:41:26;;;;;;;7.80;5.37;;;;;;;18.69;64.76;100436.02;1770268;81;20973;-77
2022/05/11 06:43:54;;;;;;;6.50;5.72;;;;;;;18.82;64.66;100432.05;1801632;79;21040;-77
2022/05/11 06:46:22;;;;;;;7.28;5.72;;;;;;;18.97;64.47;100439.41;1801733;79;21247;-77
2022/05/11 06:48:50;;;;;;;7.35;5.45;;;;;;;19.09;64.11;100437.17;1801474;79;21341;-77
2022/05/11 06:51:19;;;;;;;7.60;5.50;;;;;;;19.25;63.69;100439.58;1801804;79;21470;-77
2022/05/11 06:59:33;;;;;;;7.15;5.45;;;;;;;19.71;62.58;100437.08;1801560;79;21177;-77
2022/05/11 07:02:03;;;;;;;6.83;5.55;;;;;;;19.87;62.23;100430.59;1801934;78;20978;-77
2022/05/11 07:04:33;;;;;;;7.20;5.30;;;;;;;19.99;61.86;100429.20;1801567;79;21024;-77
2022/05/11 07:07:00;;;;;;;;;;;;;;;20.08;61.55;100425.47;1804572;79;21016;-77
2022/05/11 07:09:31;;;;;;;7.97;5.57;;;;;;;20.16;61.14;100428.39;1801748;79;21052;-77
2022/05/11 07:12:17;;;;;;;7.00;5.60;;;;;;;20.24;61.13;100424.66;1802204;79;21455;-77
2022/05/11 07:14:55;;;;;;;8.05;5.40;;;;;;;20.33;61.04;100426.61;1801772;79;20870;-77
2022/05/11 07:17:42;;;;;;;6.37;5.60;;;;;;;20.42;60.65;100428.54;1801574;79;21565;-78
2022/05/11 07:20:14;;;;;;;6.45;5.20;;;;;;;20.54;60.37;100429.45;1801827;79;21013;-78
2022/05/11 07:22:41;;;;;;;8.85;5.60;;;;;;;20.64;59.73;100423.75;1798823;79;21039;-77
2022/05/11 07:25:13;;;;;;;6.22;5.62;;;;;;;20.74;59.35;100425.70;1801873;79;21924;-77
2022/05/11 07:27:40;;;;;;;9.60;5.45;;;;;;;20.87;59.38;100425.10;1801491;79;21518;-78
2022/05/11 07:30:12;;;;;;;6.80;5.10;;;;;;;21.03;58.99;100416.70;1801744;79;21051;-78
2022/05/11 07:32:39;;;;;;;9.75;5.15;;;;;;;21.16;58.49;100416.08;1801582;79;21005;-78
2022/05/11 07:35:08;;;;;;;5.83;4.90;;;;;;;21.24;58.22;100418.97;1802031;78;21158;-78
2022/05/11 07:37:35;;;;;;;5.62;5.12;;;;;;;21.34;57.74;100412.41;1801895;79;21102;-78
2022/05/11 07:40:04;;;;;;;5.60;5.00;;;;;;;21.43;57.54;100411.68;1801503;78;21503;-78
2022/05/11 07:42:31;;;;;;;6.50;4.83;;;;;;;21.49;56.94;100411.66;1802021;79;22510;-78
2022/05/11 07:44:59;;;;;;;7.20;5.33;;;;;;;21.55;56.92;100408.48;1801901;79;21020;-78
2022/05/11 07:47:26;;;;;;;5.95;4.90;;;;;;;21.61;56.42;100407.47;1801743;79;21088;-78
2022/05/11 07:49:53;;;;;;;10.18;5.20;;;;;;;21.68;55.95;100405.16;1801684;78;21128;-78
2022/05/11 07:52:21;;;;;;;5.85;5.25;;;;;;;21.76;55.70;100401.86;1801578;79;21519;-78
2022/05/11 07:54:47;;;;;;;6.45;5.22;;;;;;;21.86;55.37;100397.91;1800527;79;21529;-78
2022/05/11 08:00:02;;;;;;;6.92;5.28;;;;;;;21.99;54.41;100395.41;1777335;78;21018;-77
2022/05/11 08:02:33;;;;;;;5.55;5.00;;;;;;;22.04;54.12;100389.19;1784657;78;21515;-80
2022/05/11 08:05:03;;;;;;;;;;;;;;;22.12;53.73;100390.38;1777774;80;21008;-79
2022/05/11 08:07:40;;;;;;;6.92;5.25;;;;;;;22.20;53.26;100389.27;1795923;79;20176;-83
2022/05/11 08:10:15;;;;;;;7.00;5.33;;;;;;;22.38;53.63;100397.49;1787265;79;21033;-82
2022/05/11 08:12:42;;;;;;;6.00;5.33;;;;;;;22.59;53.24;100402.31;1743076;82;21052;-82
2022/05/11 08:15:12;;;;;;;7.62;4.97;;;;;;;22.73;52.75;100393.58;1775117;80;21132;-80
2022/05/11 08:17:42;;;;;;;5.53;4.78;;;;;;;22.87;52.54;100399.37;1775040;80;21051;-80
2022/05/11 08:20:14;;;;;;;6.20;4.55;;;;;;;22.99;52.36;100396.13;1775300;80;21040;-81
2022/05/11 08:22:44;;;;;;;6.67;4.30;;;;;;;23.15;52.17;100392.94;1775092;80;21009;-79
2022/05/11 08:25:12;;;;;;;;;;;;;;;23.34;51.75;100394.30;1777930;80;21040;-81
2022/05/11 08:27:43;;;;;;;6.67;4.25;;;;;;;23.45;50.95;100391.99;1787023;79;21110;-80
2022/05/11 08:35:44;;;;;;;5.33;4.65;;;;;;;23.61;50.09;100391.41;1773032;79;21054;-81
2022/05/11 08:38:16;;;;;;;4.97;4.47;;;;;;;23.60;49.92;100391.06;1765824;80;21068;-82
2022/05/11 08:41:10;;;;;;;7.00;4.40;;;;;;;23.58;49.54;100384.53;1762188;80;21159;-81
2022/05/11 08:43:42;;;;;;;6.58;4.53;;;;;;;23.60;49.45;100379.86;1771362;79;21051;-80
2022/05/11 08:46:21;;;;;;;6.62;4.53;;;;;;;23.67;49.50;100375.31;1773925;80;20916;-80
2022/05/11 08:49:06;;;;;;;5.75;4.28;;;;;;;23.79;49.40;100379.55;1746868;78;21532;-80
2022/05/11 08:52:06;;;;;;;6.47;4.50;;;;;;;23.93;49.28;100367.55;1818790;77;21087;-80
2022/05/11 08:54:49;;;;;;;7.45;4.25;;;;;;;24.03;48.84;100368.38;1840857;77;21298;-78
2022/05/11 08:57:25;;;;;;;6.40;4.35;;;;;;;24.10;48.91;100364.12;1757245;81;21593;-80
2022/05/11 08:59:57;;;;;;;5.08;4.17;;;;;;;24.17;48.83;100352.34;1738806;82;21539;-82
2022/05/11 09:02:39;;;;;;;6.08;4.78;;;;;;;24.24;48.77;100354.77;1805603;79;20984;-77
2022/05/11 09:05:07;;;;;;;4.42;4.03;;;;;;;24.31;48.60;100353.21;1813308;78;21043;-78
2022/05/11 09:07:39;;;;;;;4.78;4.28;;;;;;;24.41;48.23;100347.30;1775669;80;21094;-77
2022/05/11 09:10:08;;;;;;;7.85;4.60;;;;;;;24.47;47.98;100344.09;1775108;80;21579;-78
2022/05/11 09:12:36;;;;;;;5.10;4.30;;;;;;;24.54;47.81;100347.00;1738452;82;20989;-79
2022/05/11 09:15:05;;;;;;;4.67;4.05;;;;;;;24.61;47.58;100352.59;1738201;82;21012;-78
2022/05/11 09:17:37;;;;;;;4.28;3.90;;;;;;;24.64;47.15;100354.51;1739264;79;21568;-78
2022/05/11 09:20:12;;;;;;;5.25;3.83;;;;;;;24.64;46.76;100355.84;1769424;79;21959;-77
2022/05/11 09:22:44;;;;;;;7.62;4.35;;;;;;;24.62;46.69;100366.37;1824905;77;21011;-81
2022/05/11 09:25:24;;;;;;;4.70;4.17;;;;;;;24.65;46.32;100362.88;1812281;78;21034;-77
2022/05/11 09:27:53;;;;;;;7.25;4.15;;;;;;;24.76;46.57;100358.33;1814030;78;21011;-78
2022/05/11 09:30:30;;;;;;;4.60;4.00;;;;;;;24.91;46.25;100355.47;1814343;79;21076;-78
2022/05/11 09:33:20;;;;;;;5.35;4.12;;;;;;;25.06;46.23;100353.13;1814129;79;21196;-78
2022/05/11 09:35:47;;;;;;;6.78;4.12;;;;;;;25.19;45.65;100352.78;1813956;78;21082;-78
2022/05/11 09:38:34;;;;;;;8.35;4.33;;;;;;;25.26;45.40;100351.19;1814047;78;21016;-78
2022/05/11 09:41:22;;;;;;;4.28;3.87;;;;;;;25.36;45.57;100354.64;1814043;78;21115;-78
2022/05/11 09:43:53;;;;;;;6.25;4.37;;;;;;;25.47;45.54;100347.70;1814012;78;20992;-77
2022/05/11 09:46:33;;;;;;;7.97;4.20;;;;;;;25.62;45.07;100343.11;1833886;77;21031;-80
2022/05/11 09:49:21;;;;;;;5.65;3.87;;;;;;;25.71;44.71;100346.20;1769973;80;21020;-77
2022/05/11 09:51:54;;;;;;;4.42;4.03;;;;;;;25.79;44.59;100343.06;1801798;79;21025;-77
2022/05/11 09:54:38;;;;;;;5.00;4.00;;;;;;;25.92;44.51;100344.04;1801845;79;20985;-79
2022/05/11 09:57:13;;;;;;;6.22;4.47;;;;;;;26.09;44.33;100338.27;1821743;77;21093;-78
2022/05/11 09:59:49;;;;;;;6.10;3.80;;;;;;;26.18;44.04;100328.41;1852396;77;21170;-77
2022/05/11 10:02:43;;;;;;;5.37;4.00;;;;;;;26.29;43.77;100329.47;1772765;80;21088;-78
2022/05/11 10:05:15;;;;;;;7.12;3.60;;;;;;;26.45;43.15;100329.55;1815394;78;21028;-77
2022/05/11 10:08:20;;;;;;;5.40;3.30;;;;;;;26.46;42.95;100329.05;1815329;78;21024;-77
2022/05/11 10:11:11;;;;;;;4.42;3.80;;;;;;;26.52;42.67;100327.59;1813913;79;21055;-78
2022/05/11 10:14:01;;;;;;;5.67;4.00;;;;;;;26.44;42.27;100331.91;1814274;79;21317;-78
2022/05/11 10:22:33;;;;;;;5.58;3.98;;;;;;;25.95;41.53;100325.43;1814049;79;21007;-78
2022/05/11 10:25:15;;;;;;;5.67;4.35;;;;;;;25.82;41.88;100319.92;1813777;78;20980;-78
2022/05/11 10:28:12;;;;;;;5.33;3.87;;;;;;;25.76;41.87;100327.78;1813854;78;21564;-78
2022/05/11 10:30:50;;;;;;;4.28;3.83;;;;;;;25.68;41.86;100316.98;1814342;79;21442;-78
2022/05/11 10:33:46;;;;;;;8.60;4.20;;;;;;;26.00;42.16;100309.69;1814088;79;21015;-78
2022/05/11 10:36:18;;;;;;;6.30;3.90;;;;;;;26.37;42.17;100303.98;1814325;79;22149;-78
2022/05/11 10:39:08;;;;;;;5.15;3.90;;;;;;;26.90;41.92;100308.72;1813183;78;21020;-78
2022/05/11 10:41:50;;;;;;;6.42;3.92;;;;;;;27.38;41.61;100309.83;1795820;78;21056;-78
2022/05/11 10:44:34;;;;;;;4.70;3.62;;;;;;;27.82;41.09;100306.77;1808412;79;20945;-78
2022/05/11 10:47:15;;;;;;;5.22;3.27;;;;;;;28.01;40.79;100300.17;1808447;79;21485;-78
2022/05/11 10:50:16;;;;;;;4.53;3.40;;;;;;;28.19;40.00;100295.92;1808706;79;21020;-78
2022/05/11 10:53:00;;;;;;;5.20;3.30;;;;;;;28.27;39.37;100290.98;1808017;79;20992;-77
2022/05/11 10:55:33;;;;;;;6.62;3.15;;;;;;;28.31;37.85;100293.16;1789672;79;21106;-78
2022/05/11 10:58:37;;;;;;;3.87;3.08;;;;;;;28.26;37.97;100279.38;1807829;79;21039;-77
2022/05/11 11:01:14;;;;;;;4.97;3.55;;;;;;;28.39;37.63;100285.56;1808480;79;21039;-80
2022/05/11 11:04:30;;;;;;;4.30;2.90;;;;;;;28.61;37.95;100282.62;1808565;79;20992;-78
2022/05/11 11:07:11;;;;;;;4.45;3.40;;;;;;;28.69;37.34;100278.02;1808489;79;21067;-77
2022/05/11 11:10:07;;;;;;;4.78;2.90;;;;;;;28.28;36.84;100273.30;1771141;79;21952;-78
2022/05/11 11:12:56;;;;;;;4.62;3.00;;;;;;;28.10;37.08;100265.47;1808777;79;21036;-76
2022/05/11 11:15:28;;;;;;;3.72;2.75;;;;;;;28.32;36.82;100261.66;1808758;79;21023;-78
2022/05/11 11:17:58;;;;;;;4.37;3.05;;;;;;;28.72;37.09;100258.45;1809122;79;21047;-78
2022/05/11 11:20:27;;;;;;;5.60;2.83;;;;;;;28.99;36.38;100262.46;1808887;79;20977;-78
2022/05/11 11:23:17;;;;;;;4.92;3.15;;;;;;;28.91;35.96;100251.25;1808600;79;21976;-78
2022/05/11 11:25:56;;;;;;;4.62;3.27;;;;;;;29.04;36.06;100254.19;1808662;79;20967;-78
2022/05/11 11:28:31;;;;;;;3.83;2.95;;;;;;;29.38;35.53;100261.50;1807922;79;21071;-78
2022/05/11 11:31:07;;;;;;;3.60;3.00;;;;;;;29.49;35.41;100252.47;1808705;79;21055;-79
2022/05/11 11:33:39;;;;;;;4.03;2.90;;;;;;;29.66;34.76;100250.48;1808961;79;21028;-82
2022/05/11 11:36:32;;;;;;;4.65;2.85;;;;;;;29.79;34.14;100255.22;1805547;79;21108;-79
2022/05/11 11:39:03;;;;;;;4.67;2.90;;;;;;;29.67;33.48;100257.55;1808875;79;21099;-79
2022/05/11 11:41:44;;;;;;;6.92;2.77;;;;;;;29.50;33.58;100249.25;1807895;78;21103;-79
2022/05/11 11:44:26;;;;;;;3.67;2.70;;;;;;;29.34;33.54;100241.63;1812646;79;20981;-78
2022/05/11 11:46:53;;;;;;;2.95;2.50;;;;;;;29.13;33.65;100229.36;1814442;78;21355;-77
2022/05/11 11:49:29;;;;;;;4.35;2.20;;;;;;;29.32;33.84;100231.55;1814009;79;21518;-78
2022/05/11 11:52:01;;;;;;;5.80;2.87;;;;;;;29.52;33.09;100233.20;1814225;79;21091;-79
2022/05/11 11:54:46;;;;;;;3.05;2.30;;;;;;;29.60;33.57;100221.48;1814351;79;21036;-78
2022/05/11 11:57:21;;;;;;;4.97;2.37;;;;;;;29.69;33.26;100229.02;1814411;79;20965;-84
2022/05/11 11:59:51;;;;;;;4.42;2.55;;;;;;;29.66;32.54;100218.58;1818557;77;21292;-79
2022/05/11 12:02:43;;;;;;;2.85;2.35;;;;;;;29.72;32.34;100222.72;1764871;79;21121;-82
2022/05/11 12:05:37;;;;;;;4.75;2.55;;;;;;;29.62;32.20;100216.71;1786646;80;22423;-78
2022/05/11 12:16:53;;;;;;;5.30;2.70;;;;;;;29.90;31.87;100220.14;1783047;79;22016;-77
2022/05/11 12:19:19;;;;;;;3.05;2.20;;;;;;;29.94;31.30;100221.47;1744468;82;21007;-80
2022/05/11 12:22:15;;;;;;;5.55;2.60;;;;;;;29.94;31.47;100211.48;1775425;80;21036;-82
2022/05/11 12:24:48;;;;;;;7.60;2.62;;;;;;;30.07;31.62;100207.27;1743439;82;20993;-80